createdAt,value
2019-01-28T00:00:06.939Z,2
2019-01-28T00:01:06.830Z,1.9
2019-01-28T00:02:06.719Z,1.9
2019-01-28T00:03:06.610Z,1.9
2019-01-28T00:04:06.510Z,1.9
2019-01-28T00:05:06.392Z,1.8
2019-01-28T00:06:06.283Z,1.7
2019-01-28T00:07:06.177Z,1.7
2019-01-28T00:08:06.073Z,1.7
2019-01-28T00:09:06.386Z,1.7
2019-01-28T00:10:06.277Z,1.6
2019-01-28T00:11:06.170Z,1.6
2019-01-28T00:12:06.062Z,1.5
2019-01-28T00:13:05.934Z,1.5
2019-01-28T00:14:05.826Z,1.4
2019-01-28T00:15:05.704Z,1.3
2019-01-28T00:16:05.591Z,1.2
2019-01-28T00:17:05.471Z,1.1
2019-01-28T00:18:05.355Z,1.1
2019-01-28T00:19:05.679Z,1.1
2019-01-28T00:20:05.589Z,1.1
2019-01-28T00:21:05.488Z,1.1
2019-01-28T00:22:05.371Z,1
2019-01-28T00:23:05.423Z,1.1
2019-01-28T00:24:05.332Z,1.1
2019-01-28T00:25:05.231Z,1
2019-01-28T00:26:05.120Z,1.1
2019-01-28T00:27:05.009Z,1.1
2019-01-28T00:28:04.902Z,1
2019-01-28T00:29:06.486Z,1
2019-01-28T00:30:06.375Z,1
2019-01-28T00:31:06.271Z,1
2019-01-28T00:32:06.175Z,1
2019-01-28T00:33:06.050Z,1
2019-01-28T00:34:05.943Z,1
2019-01-28T00:35:05.840Z,1
2019-01-28T00:36:05.742Z,1
2019-01-28T00:37:05.650Z,0.9
2019-01-28T00:38:05.524Z,0.8
2019-01-28T00:39:05.827Z,0.8
2019-01-28T00:40:05.711Z,0.9
2019-01-28T00:41:05.603Z,0.9
2019-01-28T00:42:05.474Z,0.9
2019-01-28T00:43:05.384Z,0.9
2019-01-28T00:44:05.295Z,0.9
2019-01-28T00:45:05.170Z,0.8
2019-01-28T00:46:05.093Z,0.8
2019-01-28T00:47:04.988Z,0.7
2019-01-28T00:48:04.891Z,0.8
2019-01-28T00:49:05.198Z,0.8
2019-01-28T00:50:05.069Z,0.7
2019-01-28T00:51:04.945Z,0.6
2019-01-28T00:52:04.843Z,0.7
2019-01-28T00:53:04.735Z,0.7
2019-01-28T00:54:04.637Z,0.7
2019-01-28T00:55:04.525Z,0.7
2019-01-28T00:56:04.471Z,0.7
2019-01-28T00:57:04.365Z,0.7
2019-01-28T00:58:04.252Z,0.7
2019-01-28T00:59:04.581Z,0.7
2019-01-28T01:00:04.477Z,0.8
2019-01-28T01:01:04.361Z,0.7
2019-01-28T01:02:04.232Z,0.7
2019-01-28T01:03:04.105Z,0.7
2019-01-28T01:04:04.012Z,0.8
2019-01-28T01:05:03.891Z,0.7
2019-01-28T01:06:03.775Z,0.7
2019-01-28T01:07:03.687Z,0.8
2019-01-28T01:08:03.577Z,0.8
2019-01-28T01:09:03.889Z,0.8
2019-01-28T01:10:03.781Z,0.8
2019-01-28T01:17:02.043Z,1
2019-01-28T01:27:59.829Z,1.4
2019-01-28T01:29:59.889Z,1.5
2019-01-28T01:31:59.568Z,1.4
2019-01-28T01:32:59.459Z,1.4
2019-01-28T01:33:59.349Z,1.4
2019-01-28T01:35:58.965Z,1.4
2019-01-28T01:36:58.844Z,1.4
2019-01-28T01:37:58.769Z,1.3
2019-01-28T01:38:59.081Z,1.3
2019-01-28T01:39:58.959Z,1.4
2019-01-28T01:43:58.118Z,1.4
2019-01-28T01:44:58.009Z,1.5
2019-01-28T01:45:57.901Z,1.5
2019-01-28T01:47:57.524Z,1.5
2019-01-28T01:48:57.837Z,1.4
2019-01-28T01:49:57.761Z,1.4
2019-01-28T01:53:56.894Z,1.3
2019-01-28T01:54:56.779Z,1.4
2019-01-28T01:57:56.099Z,1.4
2019-01-28T01:58:56.439Z,1.4
2019-01-28T01:59:56.331Z,1.3
2019-01-28T02:00:56.206Z,1.2
2019-01-28T02:01:56.115Z,1.2
2019-01-28T02:02:55.988Z,1.2
2019-01-28T02:03:55.892Z,1.2
2019-01-28T02:04:55.793Z,1.2
2019-01-28T02:05:55.675Z,1.2
2019-01-28T02:06:55.581Z,1.1
2019-01-28T02:07:55.453Z,1
2019-01-28T02:08:55.774Z,1
2019-01-28T02:09:55.688Z,0.9
2019-01-28T02:10:55.568Z,0.9
2019-01-28T02:11:55.459Z,0.9
2019-01-28T02:12:55.351Z,0.9
2019-01-28T02:13:55.225Z,0.9
2019-01-28T02:14:55.120Z,0.8
2019-01-28T02:15:55.010Z,0.8
2019-01-28T02:16:54.897Z,0.8
2019-01-28T02:17:54.780Z,0.7
2019-01-28T02:18:55.104Z,0.7
2019-01-28T02:19:55.005Z,0.7
2019-01-28T02:20:54.886Z,0.6
2019-01-28T02:21:54.774Z,0.7
2019-01-28T02:22:54.666Z,0.6
2019-01-28T02:23:54.541Z,0.6
2019-01-28T02:24:54.451Z,0.5
2019-01-28T02:25:54.322Z,0.5
2019-01-28T02:26:54.235Z,0.5
2019-01-28T02:27:54.115Z,0.4
2019-01-28T02:28:54.434Z,0.4
2019-01-28T02:29:54.341Z,0.4
2019-01-28T02:30:54.234Z,0.4
2019-01-28T02:31:54.112Z,0.5
2019-01-28T02:38:52.870Z,1
2019-01-28T02:39:52.795Z,1
2019-01-28T02:40:52.679Z,1
2019-01-28T02:41:52.608Z,0.9
2019-01-28T02:42:52.495Z,0.9
2019-01-28T02:43:52.398Z,0.8
2019-01-28T02:44:52.289Z,0.8
2019-01-28T02:45:52.188Z,0.8
2019-01-28T02:46:52.150Z,0.6
2019-01-28T02:47:52.026Z,0.6
2019-01-28T02:48:52.419Z,0.6
2019-01-28T02:49:52.348Z,0.5
2019-01-28T02:50:52.247Z,0.5
2019-01-28T02:51:52.166Z,0.5
2019-01-28T02:52:52.042Z,0.5
2019-01-28T02:53:51.942Z,0.5
2019-01-28T02:54:51.860Z,0.5
2019-01-28T02:55:51.786Z,0.4
2019-01-28T02:56:51.703Z,0.4
2019-01-28T02:57:51.610Z,0.3
2019-01-28T02:58:52.014Z,0.3
2019-01-28T02:59:51.936Z,0.3
2019-01-28T03:00:51.818Z,0.3
2019-01-28T03:05:50.696Z,0.7
2019-01-28T03:08:50.476Z,0.8
2019-01-28T03:09:50.368Z,0.8
2019-01-28T03:10:50.261Z,0.8
2019-01-28T03:11:50.162Z,0.7
2019-01-28T03:12:50.064Z,0.8
2019-01-28T03:13:49.966Z,0.7
2019-01-28T03:14:49.882Z,0.7
2019-01-28T03:15:49.788Z,0.6
2019-01-28T03:16:49.677Z,0.6
2019-01-28T03:17:49.575Z,0.6
2019-01-28T03:18:49.916Z,0.5
2019-01-28T03:19:49.830Z,0.5
2019-01-28T03:20:49.710Z,0.5
2019-01-28T03:21:49.705Z,0.5
2019-01-28T03:22:49.644Z,0.4
2019-01-28T03:23:49.546Z,0.4
2019-01-28T03:24:49.438Z,0.4
2019-01-28T03:25:49.361Z,0.4
2019-01-28T03:26:49.250Z,0.4
2019-01-28T03:27:49.155Z,0.3
2019-01-28T03:28:49.515Z,0.3
2019-01-28T03:29:49.417Z,0.3
2019-01-28T03:30:49.332Z,0.3
2019-01-28T03:31:49.260Z,0.3
2019-01-28T03:32:49.248Z,0.3
2019-01-28T03:33:49.356Z,0.2
2019-01-28T03:34:49.280Z,0.2
2019-01-28T03:35:49.223Z,0.2
2019-01-28T03:36:49.136Z,0.2
2019-01-28T03:37:49.027Z,0.2
2019-01-28T03:38:49.339Z,0.2
2019-01-28T03:39:49.249Z,0.2
2019-01-28T03:40:49.147Z,0.2
2019-01-28T03:41:49.049Z,0.2
2019-01-28T03:42:48.938Z,0.2
2019-01-28T03:43:48.841Z,0.2
2019-01-28T03:44:48.731Z,0.1
2019-01-28T03:45:48.635Z,0.1
2019-01-28T03:46:48.660Z,0.1
2019-01-28T03:47:48.581Z,0.1
2019-01-28T03:48:48.900Z,0.1
2019-01-28T03:49:48.829Z,0.2
2019-01-28T03:50:48.713Z,0.1
2019-01-28T03:51:48.629Z,0.1
2019-01-28T03:52:48.525Z,0.1
2019-01-28T03:53:48.436Z,0.2
2019-01-28T03:54:48.317Z,0.2
2019-01-28T03:55:48.225Z,0.2
2019-01-28T03:56:48.126Z,0.2
2019-01-28T03:57:48.010Z,0.1
2019-01-28T03:58:48.313Z,0.1
2019-01-28T03:59:48.195Z,0.1
2019-01-28T04:00:48.105Z,0.1
2019-01-28T04:01:48.003Z,0.1
2019-01-28T04:02:47.923Z,0.2
2019-01-28T04:03:47.827Z,0.2
2019-01-28T04:04:47.729Z,0.2
2019-01-28T04:05:47.605Z,0.2
2019-01-28T04:06:47.494Z,0.2
2019-01-28T04:07:47.393Z,0.1
2019-01-28T04:08:47.685Z,0.1
2019-01-28T04:09:47.614Z,0.1
2019-01-28T04:10:47.506Z,0.2
2019-01-28T04:11:47.492Z,0.1
2019-01-28T04:12:47.415Z,0.1
2019-01-28T04:13:47.308Z,0.1
2019-01-28T04:14:47.217Z,0.1
2019-01-28T04:15:47.118Z,0.1
2019-01-28T04:16:47.027Z,0.1
2019-01-28T04:17:46.975Z,0.1
2019-01-28T04:18:47.323Z,0.1
2019-01-28T04:19:47.248Z,0.1
2019-01-28T04:20:47.148Z,0.1
2019-01-28T04:21:47.023Z,0.1
2019-01-28T04:22:46.941Z,0
2019-01-28T04:23:46.825Z,0.1
2019-01-28T04:24:46.711Z,0.1
2019-01-28T04:25:46.611Z,0.1
2019-01-28T04:26:46.495Z,0.1
2019-01-28T04:27:46.390Z,0.1
2019-01-28T04:28:46.705Z,0.1
2019-01-28T04:29:46.607Z,0.2
2019-01-28T04:30:46.510Z,0.2
2019-01-28T04:31:46.409Z,0.2
2019-01-28T04:32:46.328Z,0.2
2019-01-28T04:33:46.243Z,0.2
2019-01-28T04:34:46.147Z,0.2
2019-01-28T04:35:46.032Z,0.2
2019-01-28T04:36:45.916Z,0.2
2019-01-28T04:37:45.854Z,0.2
2019-01-28T04:38:46.279Z,0.2
2019-01-28T04:39:46.184Z,0.2
2019-01-28T05:05:40.362Z,1.2
2019-01-28T05:06:40.277Z,1.2
2019-01-28T05:07:40.185Z,1.3
2019-01-28T05:10:39.987Z,1.2
2019-01-28T05:18:38.443Z,1.2
2019-01-28T05:19:38.345Z,1.2
2019-01-28T05:20:38.241Z,1.2
2019-01-28T05:21:38.141Z,1.1
2019-01-28T05:22:38.037Z,1.1
2019-01-28T05:23:37.951Z,1.1
2019-01-28T05:24:37.835Z,1
2019-01-28T05:25:37.761Z,0.9
2019-01-28T05:26:37.667Z,0.9
2019-01-28T05:27:37.555Z,0.9
2019-01-28T05:28:37.951Z,0.8
2019-01-28T05:29:37.870Z,0.8
2019-01-28T05:30:37.762Z,0.8
2019-01-28T05:31:37.680Z,0.7
2019-01-28T05:32:37.543Z,0.7
2019-01-28T05:33:37.445Z,0.7
2019-01-28T05:34:37.325Z,0.6
2019-01-28T05:35:37.264Z,0.6
2019-01-28T05:36:37.167Z,0.6
2019-01-28T05:37:37.047Z,0.6
2019-01-28T05:38:37.421Z,0.5
2019-01-28T05:39:37.328Z,0.5
2019-01-28T05:40:37.246Z,0.5
2019-01-28T05:41:37.157Z,0.5
2019-01-28T05:42:37.066Z,0.5
2019-01-28T05:43:37.019Z,0.4
2019-01-28T05:44:36.895Z,0.4
2019-01-28T05:45:36.773Z,0.4
2019-01-28T05:46:36.690Z,0.4
2019-01-28T05:47:36.623Z,0.3
2019-01-28T05:48:36.931Z,0.3
2019-01-28T05:49:36.837Z,0.3
2019-01-28T05:50:36.725Z,0.3
2019-01-28T05:51:36.614Z,0.3
2019-01-28T05:52:36.514Z,0.3
2019-01-28T05:53:36.414Z,0.3
2019-01-28T05:54:36.378Z,0.3
2019-01-28T05:55:36.256Z,0.3
2019-01-28T05:56:36.181Z,0.2
2019-01-28T05:57:36.056Z,0.3
2019-01-28T05:58:36.494Z,0.3
2019-01-28T05:59:36.384Z,0.3
2019-01-28T06:00:36.274Z,0.3
2019-01-28T06:01:36.174Z,0.3
2019-01-28T06:02:36.079Z,0.3
2019-01-28T06:03:36.009Z,0.3
2019-01-28T06:04:35.911Z,0.3
2019-01-28T06:05:35.793Z,0.3
2019-01-28T06:06:35.674Z,0.3
2019-01-28T06:07:35.556Z,0.3
2019-01-28T06:08:35.824Z,0.2
2019-01-28T06:09:35.716Z,0.2
2019-01-28T06:10:35.617Z,0.2
2019-01-28T06:11:35.506Z,0.3
2019-01-28T06:12:35.394Z,0.3
2019-01-28T06:13:35.298Z,0.3
2019-01-28T06:14:35.308Z,0.3
2019-01-28T06:15:35.206Z,0.3
2019-01-28T06:16:35.094Z,0.3
2019-01-28T06:17:39.634Z,0.2
2019-01-28T06:18:39.954Z,0.2
2019-01-28T06:19:39.866Z,0.2
2019-01-28T06:20:39.815Z,0.2
2019-01-28T06:21:39.706Z,0.2
2019-01-28T06:22:39.608Z,0.2
2019-01-28T06:23:39.498Z,0.2
2019-01-28T06:24:39.386Z,0.3
2019-01-28T06:25:39.339Z,0.2
2019-01-28T06:26:39.296Z,0.2
2019-01-28T06:27:39.197Z,0.2
2019-01-28T06:28:39.498Z,0.2
2019-01-28T06:29:39.419Z,0.2
2019-01-28T06:30:39.298Z,0.2
2019-01-28T06:31:39.181Z,0.3
2019-01-28T06:32:39.068Z,0.3
2019-01-28T06:33:38.968Z,0.2
2019-01-28T06:34:38.868Z,0.2
2019-01-28T06:35:38.772Z,0.2
2019-01-28T06:36:38.674Z,0.3
2019-01-28T06:37:38.552Z,0.3
2019-01-28T06:38:38.882Z,0.3
2019-01-28T06:39:38.771Z,0.3
2019-01-28T06:48:36.954Z,0.9
2019-01-28T06:49:36.884Z,0.9
2019-01-28T06:50:36.783Z,0.9
2019-01-28T06:51:36.680Z,0.9
2019-01-28T06:52:36.564Z,0.9
2019-01-28T06:53:36.458Z,0.9
2019-01-28T06:54:36.355Z,0.9
2019-01-28T06:55:36.252Z,0.9
2019-01-28T06:56:36.168Z,0.9
2019-01-28T06:57:36.056Z,0.8
2019-01-28T06:58:36.396Z,0.8
2019-01-28T06:59:36.286Z,0.7
2019-01-28T07:00:36.181Z,0.7
2019-01-28T07:01:36.086Z,0.6
2019-01-28T07:02:35.984Z,0.6
2019-01-28T07:03:35.934Z,0.6
2019-01-28T07:04:35.818Z,0.5
2019-01-28T07:05:35.697Z,0.5
2019-01-28T07:06:35.586Z,0.5
2019-01-28T07:07:35.495Z,0.5
2019-01-28T07:08:35.825Z,0.5
2019-01-28T07:09:35.716Z,0.4
2019-01-28T07:10:35.612Z,0.5
2019-01-28T07:11:35.533Z,0.5
2019-01-28T07:12:35.448Z,0.5
2019-01-28T07:13:35.322Z,0.4
2019-01-28T07:14:35.228Z,0.4
2019-01-28T07:15:35.130Z,0.4
2019-01-28T07:16:35.011Z,0.4
2019-01-28T07:17:34.964Z,0.4
2019-01-28T07:18:35.266Z,0.4
2019-01-28T07:19:35.193Z,0.4
2019-01-28T07:20:35.140Z,0.4
2019-01-28T07:28:33.656Z,0.9
2019-01-28T07:29:33.549Z,0.9
2019-01-28T07:30:33.442Z,1
2019-01-28T07:31:33.333Z,0.9
2019-01-28T07:32:33.224Z,0.9
2019-01-28T07:33:33.143Z,0.9
2019-01-28T07:34:33.052Z,0.9
2019-01-28T07:35:32.948Z,0.8
2019-01-28T07:36:32.833Z,0.8
2019-01-28T07:37:32.740Z,0.8
2019-01-28T07:38:33.070Z,0.8
2019-01-28T07:39:32.996Z,0.8
2019-01-28T07:40:32.873Z,0.7
2019-01-28T07:41:32.775Z,0.7
2019-01-28T07:42:32.648Z,0.7
2019-01-28T07:43:32.601Z,0.7
2019-01-28T07:44:32.493Z,0.7
2019-01-28T07:45:32.406Z,0.7
2019-01-28T07:46:32.307Z,0.7
2019-01-28T07:47:32.200Z,0.7
2019-01-28T07:48:33.284Z,0.6
2019-01-28T07:49:33.201Z,0.6
2019-01-28T07:50:33.085Z,0.6
2019-01-28T07:51:32.981Z,0.6
2019-01-28T07:52:32.887Z,0.6
2019-01-28T07:53:32.789Z,0.7
2019-01-28T07:54:32.733Z,0.6
2019-01-28T07:55:32.624Z,0.6
2019-01-28T07:56:32.531Z,0.6
2019-01-28T07:57:32.422Z,0.6
2019-01-28T07:58:32.729Z,0.6
2019-01-28T07:59:32.625Z,0.6
2019-01-28T08:00:32.551Z,0.6
2019-01-28T08:01:32.448Z,0.7
2019-01-28T08:02:32.357Z,0.8
2019-01-28T08:05:31.719Z,1.1
2019-01-28T08:08:31.483Z,1.3
2019-01-28T08:09:31.392Z,1.3
2019-01-28T08:10:31.291Z,1.2
2019-01-28T08:11:31.193Z,1.2
2019-01-28T08:12:31.081Z,1.2
2019-01-28T08:13:30.977Z,1.2
2019-01-28T08:14:30.858Z,1.2
2019-01-28T08:15:30.740Z,1.2
2019-01-28T08:16:30.640Z,1.2
2019-01-28T08:17:30.548Z,1.2
2019-01-28T08:18:40.528Z,1.2
2019-01-28T08:19:40.423Z,1.2
2019-01-28T08:20:40.319Z,1.2
2019-01-28T08:21:40.224Z,1.2
2019-01-28T08:22:43.347Z,1.1
2019-01-28T08:23:43.267Z,1.2
2019-01-28T08:24:43.156Z,1.1
2019-01-28T08:25:43.056Z,1.1
2019-01-28T08:26:42.989Z,1.1
2019-01-28T08:27:42.877Z,1.1
2019-01-28T08:28:43.191Z,1
2019-01-28T08:29:43.089Z,1
2019-01-28T08:30:42.977Z,1
2019-01-28T08:31:42.895Z,1
2019-01-28T08:32:42.787Z,1
2019-01-28T08:33:42.671Z,1
2019-01-28T08:34:42.563Z,1
2019-01-28T08:35:42.435Z,1
2019-01-28T08:36:42.342Z,1
2019-01-28T08:37:42.229Z,1
2019-01-28T08:38:42.544Z,1
2019-01-28T08:39:43.585Z,1
2019-01-28T08:40:43.501Z,1
2019-01-28T08:41:43.407Z,1
2019-01-28T08:42:43.305Z,1
2019-01-28T08:43:43.197Z,0.9
2019-01-28T08:44:43.083Z,1
2019-01-28T08:45:42.971Z,0.9
2019-01-28T08:46:42.896Z,1
2019-01-28T08:47:42.815Z,0.9
2019-01-28T08:48:48.398Z,1
2019-01-28T08:49:48.302Z,1
2019-01-28T08:50:48.209Z,1
2019-01-28T08:51:48.134Z,1
2019-01-28T08:52:48.059Z,1
2019-01-28T08:53:47.959Z,1
2019-01-28T08:54:47.859Z,1
2019-01-28T08:55:47.792Z,1
2019-01-28T08:56:47.732Z,1
2019-01-28T08:57:47.661Z,0.9
2019-01-28T08:58:48.126Z,1
2019-01-28T08:59:48.020Z,1
2019-01-28T09:00:47.903Z,1.1
2019-01-28T09:01:47.820Z,1.1
2019-01-28T09:02:47.796Z,1.3
2019-01-28T09:08:46.838Z,1.6
2019-01-28T09:09:46.730Z,1.6
2019-01-28T09:10:46.654Z,1.5
2019-01-28T09:11:46.553Z,1.5
2019-01-28T09:12:47.861Z,1.5
2019-01-28T09:13:47.804Z,1.5
2019-01-28T09:14:47.728Z,1.4
2019-01-28T09:15:47.623Z,1.3
2019-01-28T09:16:47.545Z,1.3
2019-01-28T09:17:47.451Z,1.3
2019-01-28T09:18:56.370Z,1.3
2019-01-28T09:19:56.279Z,1.3
2019-01-28T09:20:56.179Z,1.3
2019-01-28T09:21:56.064Z,1.3
2019-01-28T09:22:55.954Z,1.3
2019-01-28T09:23:55.841Z,1.3
2019-01-28T09:24:55.758Z,1.3
2019-01-28T09:25:55.642Z,1.3
2019-01-28T09:26:55.546Z,1.2
2019-01-28T09:27:55.441Z,1.1
2019-01-28T09:28:55.760Z,1.2
2019-01-28T09:29:55.734Z,1.2
2019-01-28T09:30:55.631Z,1.2
2019-01-28T09:31:55.511Z,1.2
2019-01-28T09:32:55.401Z,1.2
2019-01-28T09:33:55.283Z,1.2
2019-01-28T09:34:55.175Z,1.2
2019-01-28T09:35:55.067Z,1.2
2019-01-28T09:36:54.997Z,1.2
2019-01-28T09:37:54.896Z,1.2
2019-01-28T09:38:55.213Z,1.2
2019-01-28T09:39:55.117Z,1
2019-01-28T09:40:55.032Z,0.7
2019-01-28T09:41:54.946Z,0.3
2019-01-28T09:48:53.772Z,1.1
2019-01-28T09:49:53.657Z,1.1
2019-01-28T09:50:53.547Z,1.2
2019-01-28T09:51:53.494Z,1.2
2019-01-28T09:52:53.385Z,1.3
2019-01-28T09:53:53.254Z,1.3
2019-01-28T09:54:53.130Z,1.4
2019-01-28T09:55:53.018Z,1.4
2019-01-28T09:56:52.929Z,1.3
2019-01-28T09:57:52.846Z,1.4
2019-01-28T09:58:53.156Z,1.4
2019-01-28T09:59:53.100Z,1.5
2019-01-28T10:00:52.992Z,1.5
2019-01-28T10:01:52.890Z,1.6
2019-01-28T10:02:52.789Z,1.6
2019-01-28T10:03:52.706Z,1.7
2019-01-28T10:04:52.574Z,1.7
2019-01-28T10:05:52.472Z,1.8
2019-01-28T10:07:52.104Z,2
2019-01-28T10:08:52.444Z,2.1
2019-01-28T10:09:52.329Z,2
2019-01-28T10:10:52.249Z,2
2019-01-28T10:11:52.144Z,2
2019-01-28T10:12:52.044Z,2
2019-01-28T10:13:51.936Z,2.1
2019-01-28T10:14:51.838Z,2.1
2019-01-28T10:15:51.736Z,2
2019-01-28T10:16:51.644Z,1.9
2019-01-28T10:17:51.525Z,1.8
2019-01-28T10:18:51.863Z,1.9
2019-01-28T10:19:51.754Z,1.8
2019-01-28T10:20:51.645Z,1.8
2019-01-28T10:21:51.527Z,1.7
2019-01-28T10:22:51.434Z,1.7
2019-01-28T10:23:51.335Z,1.7
2019-01-28T10:24:51.252Z,1.6
2019-01-28T10:25:51.146Z,1.6
2019-01-28T10:26:51.040Z,1.6
2019-01-28T10:27:50.948Z,1.6
2019-01-28T10:28:53.093Z,1.7
2019-01-28T10:29:53.008Z,1.7
2019-01-28T10:30:52.896Z,1.7
2019-01-28T10:31:52.793Z,1.6
2019-01-28T10:32:52.685Z,1.6
2019-01-28T10:33:52.576Z,1.6
2019-01-28T10:34:52.490Z,1.6
2019-01-28T10:35:52.406Z,1.6
2019-01-28T10:36:52.293Z,1.6
2019-01-28T10:37:52.177Z,1.6
2019-01-28T10:38:52.492Z,1.6
2019-01-28T10:39:52.487Z,1.6
2019-01-28T10:40:52.389Z,1.6
2019-01-28T10:41:52.299Z,1.6
2019-01-28T10:42:52.204Z,1.6
2019-01-28T10:43:52.095Z,1.5
2019-01-28T10:44:51.989Z,1.6
2019-01-28T10:45:51.871Z,1.5
2019-01-28T10:46:51.768Z,1.5
2019-01-28T10:47:51.666Z,1.4
2019-01-28T10:48:51.977Z,1.4
2019-01-28T10:49:51.892Z,1.4
2019-01-28T10:50:51.780Z,1.3
2019-01-28T10:51:51.682Z,1.4
2019-01-28T10:58:50.407Z,1.6
2019-01-28T10:59:50.313Z,1.6
2019-01-28T11:00:50.216Z,1.6
2019-01-28T11:01:50.120Z,1.7
2019-01-28T11:02:50.072Z,1.6
2019-01-28T11:03:49.968Z,1.6
2019-01-28T11:04:49.867Z,1.6
2019-01-28T11:05:49.765Z,1.7
2019-01-28T11:06:49.684Z,1.6
2019-01-28T11:07:49.597Z,1.6
2019-01-28T11:08:49.985Z,1.6
2019-01-28T11:09:50.148Z,1.5
2019-01-28T11:10:50.470Z,1.4
2019-01-28T11:11:51.084Z,1.3
2019-01-28T11:12:51.344Z,1.3
2019-01-28T11:13:51.643Z,1.3
2019-01-28T11:14:51.848Z,1.2
2019-01-28T11:15:52.163Z,1.2
2019-01-28T11:16:52.290Z,1.3
2019-01-28T11:17:52.460Z,1.2
2019-01-28T11:18:58.731Z,1.2
2019-01-28T11:19:59.058Z,1.2
2019-01-28T11:20:59.430Z,1.3
2019-01-28T11:21:59.717Z,1.3
2019-01-28T11:23:00.058Z,1.5
2019-01-28T11:29:04.111Z,2.1
2019-01-28T11:30:04.642Z,2.2
2019-01-28T11:33:05.247Z,2.1
2019-01-28T11:37:06.470Z,2.1
2019-01-28T11:38:07.051Z,2.1
2019-01-28T11:39:08.596Z,2.2
2019-01-28T11:40:09.237Z,2.2
2019-01-28T11:41:09.817Z,2.1
2019-01-28T11:42:09.918Z,2.1
2019-01-28T11:43:10.475Z,2.1
2019-01-28T11:44:11.321Z,2.1
2019-01-28T11:45:11.801Z,2
2019-01-28T11:46:12.269Z,2
2019-01-28T11:47:12.539Z,2
2019-01-28T11:48:13.086Z,2
2019-01-28T11:49:14.633Z,1.9
2019-01-28T11:50:14.989Z,2
2019-01-28T11:51:14.884Z,1.8
2019-01-28T11:52:14.823Z,1.9
2019-01-28T11:53:14.708Z,1.9
2019-01-28T11:54:14.616Z,1.9
2019-01-28T11:55:14.509Z,2
2019-01-28T11:56:14.418Z,2
2019-01-28T11:57:14.309Z,2.1
2019-01-28T11:58:14.246Z,2.1
2019-01-28T11:59:15.788Z,2.1
2019-01-28T12:00:15.686Z,2.2
2019-01-28T12:01:15.591Z,2.2
2019-01-28T12:02:15.497Z,2.2
2019-01-28T12:03:15.414Z,2.3
2019-01-28T12:04:15.306Z,2.4
2019-01-28T12:05:15.280Z,2.4
2019-01-28T12:06:15.198Z,2.5
2019-01-28T12:07:15.107Z,2.5
2019-01-28T12:09:15.204Z,2.6
2019-01-28T12:10:15.105Z,2.6
2019-01-28T12:11:15.009Z,2.6
2019-01-28T12:12:14.926Z,2.7
2019-01-28T12:13:14.825Z,2.8
2019-01-28T12:14:14.720Z,2.8
2019-01-28T12:15:14.629Z,2.7
2019-01-28T12:16:14.507Z,2.8
2019-01-28T12:17:14.406Z,2.8
2019-01-28T12:18:14.422Z,2.8
2019-01-28T12:19:15.184Z,2.8
2019-01-28T12:20:15.121Z,2.8
2019-01-28T12:21:15.027Z,2.8
2019-01-28T12:22:14.919Z,2.7
2019-01-28T12:23:15.058Z,2.7
2019-01-28T12:24:14.950Z,2.7
2019-01-28T12:25:14.865Z,2.7
2019-01-28T12:26:14.789Z,2.6
2019-01-28T12:27:14.695Z,2.7
2019-01-28T12:28:14.595Z,2.6
2019-01-28T12:29:14.916Z,2.5
2019-01-28T12:30:14.819Z,2.4
2019-01-28T12:31:14.727Z,2.4
2019-01-28T12:32:14.609Z,2.4
2019-01-28T12:33:14.507Z,2.3
2019-01-28T12:34:16.114Z,2.3
2019-01-28T12:35:18.035Z,2.3
2019-01-28T12:36:17.945Z,2.3
2019-01-28T12:37:17.842Z,2.2
2019-01-28T12:38:17.744Z,2.2
2019-01-28T12:39:19.787Z,2.1
2019-01-28T12:40:19.739Z,2
2019-01-28T12:41:19.641Z,2
2019-01-28T12:42:19.554Z,2
2019-01-28T12:43:19.465Z,1.9
2019-01-28T12:44:19.369Z,1.9
2019-01-28T12:45:19.281Z,1.9
2019-01-28T12:46:19.181Z,1.9
2019-01-28T12:47:19.082Z,1.9
2019-01-28T12:48:18.991Z,1.8
2019-01-28T12:49:22.741Z,1.7
2019-01-28T12:50:22.632Z,1.8
2019-01-28T12:51:22.552Z,1.7
2019-01-28T12:52:22.516Z,1.8
2019-01-28T12:53:22.491Z,1.7
2019-01-28T12:54:22.423Z,1.8
2019-01-28T12:55:22.316Z,1.7
2019-01-28T12:56:22.233Z,1.7
2019-01-28T12:57:22.188Z,1.6
2019-01-28T12:58:22.095Z,1.4
2019-01-28T12:59:22.400Z,1.4
2019-01-28T13:00:22.281Z,1.4
2019-01-28T13:01:22.186Z,1.3
2019-01-28T13:02:22.106Z,1.3
2019-01-28T13:03:22.042Z,1.3
2019-01-28T13:04:21.921Z,1.4
2019-01-28T13:05:21.821Z,1.4
2019-01-28T13:06:21.708Z,1.4
2019-01-28T13:07:21.599Z,1.4
2019-01-28T13:08:21.516Z,1.5
2019-01-28T13:09:21.842Z,1.5
2019-01-28T13:10:21.733Z,1.5
2019-01-28T13:11:21.630Z,1.4
2019-01-28T13:12:21.594Z,1.5
2019-01-28T13:13:21.487Z,1.6
2019-01-28T13:14:21.387Z,1.6
2019-01-28T13:15:21.282Z,1.5
2019-01-28T13:16:21.161Z,1.5
2019-01-28T13:17:21.062Z,1.5
2019-01-28T13:18:21.085Z,1.5
2019-01-28T13:19:21.376Z,1.4
2019-01-28T13:20:21.311Z,1.5
2019-01-28T13:21:21.188Z,1.5
2019-01-28T13:22:21.082Z,1.5
2019-01-28T13:23:20.986Z,1.4
2019-01-28T13:24:20.874Z,1.3
2019-01-28T13:25:20.783Z,1.3
2019-01-28T13:26:20.661Z,1.3
2019-01-28T13:27:20.552Z,1.3
2019-01-28T13:28:20.459Z,1.3
2019-01-28T13:29:20.768Z,1.3
2019-01-28T13:30:20.673Z,1.3
2019-01-28T13:31:20.621Z,1.3
2019-01-28T13:32:20.506Z,1.4
2019-01-28T13:33:20.458Z,1.4
2019-01-28T13:34:20.342Z,1.4
2019-01-28T13:35:20.240Z,1.4
2019-01-28T13:36:20.122Z,1.4
2019-01-28T13:37:20.022Z,1.3
2019-01-28T13:38:19.972Z,1.3
2019-01-28T13:39:20.282Z,1.3
2019-01-28T13:40:20.200Z,1.4
2019-01-28T13:41:20.083Z,1.4
2019-01-28T13:42:19.974Z,1.4
2019-01-28T13:43:19.874Z,1.4
2019-01-28T13:44:19.753Z,1.3
2019-01-28T13:45:19.638Z,1.4
2019-01-28T13:46:19.538Z,1.4
2019-01-28T13:47:19.430Z,1.4
2019-01-28T13:48:19.336Z,1.4
2019-01-28T13:49:19.660Z,1.4
2019-01-28T13:50:19.545Z,1.3
2019-01-28T13:51:19.434Z,1.4
2019-01-28T13:52:19.350Z,1.4
2019-01-28T13:53:19.285Z,1.5
2019-01-28T13:54:19.182Z,1.5
2019-01-28T13:55:19.086Z,1.5
2019-01-28T13:56:18.982Z,1.5
2019-01-28T13:57:18.874Z,1.5
2019-01-28T13:58:18.784Z,1.6
2019-01-28T13:59:19.088Z,1.6
2019-01-28T14:00:19.010Z,1.6
2019-01-28T14:01:18.904Z,1.6
2019-01-28T14:02:18.788Z,1.6
2019-01-28T14:03:18.707Z,1.5
2019-01-28T14:04:18.660Z,1.5
2019-01-28T14:05:18.552Z,1.5
2019-01-28T14:06:18.443Z,1.5
2019-01-28T14:07:18.336Z,1.6
2019-01-28T14:08:18.256Z,1.6
2019-01-28T14:09:18.556Z,1.6
2019-01-28T14:10:18.439Z,1.6
2019-01-28T14:11:18.349Z,1.7
2019-01-28T14:12:18.240Z,1.6
2019-01-28T14:13:18.144Z,1.7
2019-01-28T14:14:18.050Z,1.7
2019-01-28T14:15:17.936Z,1.7
2019-01-28T14:16:17.818Z,1.6
2019-01-28T14:17:17.739Z,1.7
2019-01-28T14:18:17.648Z,1.7
2019-01-28T14:19:18.016Z,1.6
2019-01-28T14:20:17.932Z,1.5
2019-01-28T14:21:17.830Z,1.6
2019-01-28T14:22:17.740Z,1.6
2019-01-28T14:23:17.647Z,1.6
2019-01-28T14:24:17.589Z,1.7
2019-01-28T14:25:17.527Z,1.7
2019-01-28T14:26:17.427Z,1.6
2019-01-28T14:27:17.319Z,1.6
2019-01-28T14:28:17.195Z,1.6
2019-01-28T14:29:17.554Z,1.7
2019-01-28T14:30:17.456Z,1.7
2019-01-28T14:31:17.355Z,1.7
2019-01-28T14:32:17.256Z,1.8
2019-01-28T14:34:16.910Z,2
2019-01-28T14:35:16.809Z,2.1
2019-01-28T14:38:16.181Z,2.3
2019-01-28T14:39:16.504Z,2.3
2019-01-28T14:40:16.381Z,2.2
2019-01-28T14:41:16.277Z,2.2
2019-01-28T14:42:16.176Z,2.2
2019-01-28T14:43:16.074Z,2.2
2019-01-28T14:44:15.993Z,2.2
2019-01-28T14:45:15.892Z,2.2
2019-01-28T14:46:15.791Z,2.2
2019-01-28T14:47:15.691Z,2.1
2019-01-28T14:48:15.592Z,2.1
2019-01-28T14:49:19.440Z,2.1
2019-01-28T14:50:19.352Z,2.1
2019-01-28T14:51:19.249Z,2
2019-01-28T14:52:19.213Z,2
2019-01-28T14:53:19.113Z,2.1
2019-01-28T14:54:19.005Z,2
2019-01-28T14:55:18.928Z,2
2019-01-28T14:56:18.803Z,1.9
2019-01-28T14:57:18.691Z,1.9
2019-01-28T14:58:18.602Z,1.9
2019-01-28T14:59:19.431Z,1.8
2019-01-28T15:00:19.323Z,1.8
2019-01-28T15:01:19.239Z,1.7
2019-01-28T15:02:20.851Z,1.8
2019-01-28T15:03:21.001Z,1.7
2019-01-28T15:04:20.901Z,1.7
2019-01-28T15:05:20.788Z,1.7
2019-01-28T15:06:20.702Z,1.7
2019-01-28T15:07:20.595Z,1.6
2019-01-28T15:08:20.519Z,1.7
2019-01-28T15:09:21.018Z,1.7
2019-01-28T15:10:20.969Z,1.7
2019-01-28T15:11:20.887Z,1.7
2019-01-28T15:12:20.791Z,1.6
2019-01-28T15:13:20.747Z,1.6
2019-01-28T15:14:20.633Z,1.6
2019-01-28T15:15:20.571Z,1.6
2019-01-28T15:16:20.493Z,1.6
2019-01-28T15:17:20.379Z,1.6
2019-01-28T15:18:20.275Z,1.5
2019-01-28T15:19:20.596Z,1.5
2019-01-28T15:20:20.489Z,1.5
2019-01-28T15:21:20.373Z,1.5
2019-01-28T15:22:20.297Z,1.5
2019-01-28T15:23:20.201Z,1.5
2019-01-28T15:24:20.091Z,1.5
2019-01-28T15:25:19.975Z,1.5
2019-01-28T15:26:20.118Z,1.5
2019-01-28T15:27:20.208Z,1.5
2019-01-28T15:28:20.242Z,1.5
2019-01-28T15:29:20.607Z,1.5
2019-01-28T15:30:20.508Z,1.2
2019-01-28T15:31:20.433Z,1
2019-01-28T15:32:20.317Z,1.1
2019-01-28T15:33:20.540Z,1.2
2019-01-28T15:34:20.812Z,1.2
2019-01-28T15:35:20.841Z,1.3
2019-01-28T15:36:20.734Z,1.3
2019-01-28T15:37:20.633Z,1.3
2019-01-28T15:38:20.529Z,1.3
2019-01-28T15:39:20.859Z,1.3
2019-01-28T15:40:20.804Z,1.3
2019-01-28T15:41:20.723Z,1.3
2019-01-28T15:42:20.607Z,1.4
2019-01-28T15:43:20.502Z,1.4
2019-01-28T15:48:25.507Z,1.9
2019-01-28T15:49:26.010Z,1.9
2019-01-28T15:50:26.014Z,1.9
2019-01-28T15:51:26.003Z,1.9
2019-01-28T15:52:25.887Z,1.9
2019-01-28T15:53:25.785Z,1.8
2019-01-28T15:54:25.710Z,1.8
2019-01-28T15:55:25.611Z,1.8
2019-01-28T15:56:25.493Z,1.8
2019-01-28T15:57:25.489Z,1.7
2019-01-28T15:58:25.635Z,1.7
2019-01-28T15:59:25.951Z,1.6
2019-01-28T16:00:25.871Z,1.6